Time;durP1;ratioP1;P1;durP2;ratioP2;P2;SDS_P1;SDS_P2;PMS_P1;PMS_P2;Temp;Humidity;BMP_temperature;BMP_pressure;BME280_temperature;BME280_humidity;BME280_pressure;Samples;Min_cycle;Max_cycle;Signal;HPM_P1;HPM_P2
2022/02/08 00:01:23;;;;;;;11.93;2.80;;;1.30;13.80;;;;;;7369283;19;20086;-59
2022/02/08 00:03:53;;;;;;;7.70;3.17;;;1.30;13.80;;;;;;7383572;19;20018;-59
2022/02/08 00:06:37;;;;;;;7.45;2.53;;;1.30;13.70;;;;;;7364759;19;20789;-59
2022/02/08 00:09:08;;;;;;;11.00;3.15;;;1.40;13.40;;;;;;7360625;19;20014;-60
2022/02/08 00:11:37;;;;;;;5.45;2.67;;;1.40;12.50;;;;;;7367797;19;20056;-60
2022/02/08 00:14:09;;;;;;;7.78;2.65;;;1.50;12.10;;;;;;7360730;19;20007;-60
2022/02/08 00:16:42;;;;;;;7.97;2.50;;;1.50;11.30;;;;;;7368131;19;20013;-60
2022/02/08 00:19:12;;;;;;;10.30;2.60;;;1.60;11.30;;;;;;7361807;19;20021;-60
2022/02/08 00:21:42;;;;;;;13.95;2.15;;;1.70;11.00;;;;;;7386734;19;20021;-58
2022/02/08 00:24:12;;;;;;;6.90;2.38;;;1.80;10.50;;;;;;7362983;19;20007;-61
2022/02/08 00:26:42;;;;;;;5.07;1.92;;;1.80;10.20;;;;;;7365516;19;20006;-60
2022/02/08 00:29:14;;;;;;;8.38;2.58;;;1.90;9.90;;;;;;7361062;19;20010;-60
2022/02/08 00:31:46;;;;;;;5.70;1.70;;;2.00;8.90;;;;;;7367215;19;20018;-60
2022/02/08 00:34:19;;;;;;;6.20;1.77;;;2.00;8.80;;;;;;7362285;19;20019;-60
2022/02/08 00:36:49;;;;;;;4.93;2.08;;;2.10;8.10;;;;;;7385562;19;20007;-60
2022/02/08 00:39:19;;;;;;;4.97;1.63;;;2.20;7.20;;;;;;7361830;19;20010;-61
2022/02/08 00:41:49;;;;;;;7.53;2.42;;;2.20;7.20;;;;;;7367177;19;20007;-59
2022/02/08 00:44:24;;;;;;;8.15;2.70;;;2.30;6.90;;;;;;7360348;19;20005;-59
2022/02/08 00:47:10;;;;;;;9.20;1.95;;;2.30;6.70;;;;;;7364549;19;20070;-59
2022/02/08 00:49:42;;;;;;;7.38;1.95;;;2.30;6.30;;;;;;7362671;19;20396;-60
2022/02/08 00:52:15;;;;;;;5.20;1.85;;;2.40;5.80;;;;;;7364695;19;20021;-60
2022/02/08 00:54:45;;;;;;;10.85;2.58;;;2.30;6.10;;;;;;7382838;19;20668;-60
2022/02/08 00:57:16;;;;;;;6.50;2.25;;;2.30;6.40;;;;;;7365501;19;20279;-60
2022/02/08 00:59:46;;;;;;;6.60;1.63;;;2.30;6.40;;;;;;7359650;19;20010;-58
2022/02/08 01:02:19;;;;;;;6.47;1.88;;;2.30;6.30;;;;;;7364591;19;20006;-59
2022/02/08 01:04:54;;;;;;;6.35;2.08;;;2.30;6.60;;;;;;7362090;19;20007;-60
2022/02/08 01:07:26;;;;;;;5.85;2.08;;;2.30;6.70;;;;;;7361740;19;20409;-60
2022/02/08 01:09:59;;;;;;;4.53;1.85;;;2.30;7.10;;;;;;7377571;19;20082;-61
2022/02/08 01:12:35;;;;;;;8.77;2.10;;;2.30;7.20;;;;;;7388303;19;20014;-59
2022/02/08 01:15:07;;;;;;;7.55;1.88;;;2.20;7.20;;;;;;7360108;19;20006;-59
2022/02/08 01:17:39;;;;;;;6.65;2.00;;;2.20;8.00;;;;;;7358677;19;20014;-60
2022/02/08 01:20:14;;;;;;;5.45;2.13;;;2.10;8.50;;;;;;7365602;19;20545;-60
2022/02/08 01:22:44;;;;;;;5.75;1.95;;;2.10;8.80;;;;;;7364288;19;20017;-60
2022/02/08 01:25:26;;;;;;;4.40;1.85;;;2.00;9.10;;;;;;7361078;19;20018;-59
2022/02/08 01:28:03;;;;;;;8.10;1.95;;;2.00;9.30;;;;;;7381748;19;20007;-60
2022/02/08 01:30:46;;;;;;;11.40;2.00;;;2.00;9.50;;;;;;7365605;19;20077;-60
2022/02/08 01:33:37;;;;;;;10.48;2.13;;;2.00;9.50;;;;;;7359386;19;20473;-60
2022/02/08 01:36:33;;;;;;;5.07;1.88;;;2.00;9.90;;;;;;7362177;19;20458;-59
2022/02/08 01:39:10;;;;;;;6.78;2.03;;;2.00;10.00;;;;;;7357970;19;20493;-60
2022/02/08 01:44:31;;;;;;;4.20;2.17;;;2.10;10.50;;;;;;7357447;19;20013;-60
2022/02/08 01:47:17;;;;;;;6.07;1.67;;;2.10;9.60;;;;;;7363569;19;20017;-59
2022/02/08 01:50:00;;;;;;;6.35;1.60;;;2.20;9.30;;;;;;7360852;19;20007;-59
2022/02/08 01:52:30;;;;;;;5.40;1.80;;;2.20;9.20;;;;;;7362709;19;20114;-59
2022/02/08 01:55:00;;;;;;;6.90;1.90;;;2.20;9.30;;;;;;7359163;19;20766;-60
2022/02/08 01:57:30;;;;;;;3.58;1.40;;;2.30;8.90;;;;;;7384135;19;20127;-60
2022/02/08 02:00:00;;;;;;;5.95;1.65;;;2.30;8.40;;;;;;7361276;19;20021;-60
2022/02/08 02:02:30;;;;;;;7.40;2.45;;;2.40;8.10;;;;;;7363231;19;20014;-60
2022/02/08 02:05:02;;;;;;;4.80;1.77;;;2.40;7.80;;;;;;7360716;19;20014;-60
2022/02/08 02:07:32;;;;;;;7.75;2.10;;;2.40;7.30;;;;;;7358353;19;20002;-58
2022/02/08 02:10:05;;;;;;;6.40;1.85;;;2.40;7.30;;;;;;7363202;19;20015;-58
2022/02/08 02:12:36;;;;;;;8.45;1.98;;;2.40;7.40;;;;;;7384655;19;20010;-59
2022/02/08 02:15:07;;;;;;;7.28;1.60;;;2.40;7.30;;;;;;7356459;19;20796;-60
2022/02/08 02:17:37;;;;;;;5.32;1.50;;;2.40;7.40;;;;;;7358379;19;20074;-60
2022/02/08 02:20:11;;;;;;;4.65;1.73;;;2.40;7.30;;;;;;7364075;19;20018;-60
2022/02/08 02:22:41;;;;;;;6.68;1.92;;;2.50;7.40;;;;;;7361262;19;20086;-59
2022/02/08 02:25:24;;;;;;;5.30;1.52;;;2.50;7.40;;;;;;7358650;19;20026;-60
2022/02/08 02:27:57;;;;;;;7.60;1.83;;;2.50;6.80;;;;;;7380777;19;20011;-59
2022/02/08 02:30:29;;;;;;;8.00;2.10;;;2.50;6.50;;;;;;7362480;19;20014;-60
2022/02/08 02:33:00;;;;;;;11.05;2.67;;;2.50;7.00;;;;;;7359644;19;20074;-59
2022/02/08 02:35:30;;;;;;;3.58;1.30;;;2.50;7.40;;;;;;7361262;19;20027;-58
2022/02/08 02:38:01;;;;;;;3.78;1.90;;;2.40;7.10;;;;;;7356544;19;20010;-59
2022/02/08 02:40:34;;;;;;;6.70;1.50;;;2.50;7.30;;;;;;7362586;19;20013;-60
2022/02/08 02:43:04;;;;;;;6.25;2.45;;;2.40;7.30;;;;;;7361979;19;20074;-59
2022/02/08 02:45:34;;;;;;;9.55;1.92;;;2.50;7.40;;;;;;7382235;19;20014;-59
2022/02/08 02:48:04;;;;;;;4.10;1.50;;;2.50;7.00;;;;;;7354478;19;20719;-59
2022/02/08 02:50:34;;;;;;;5.75;1.33;;;2.50;6.40;;;;;;7368499;19;20036;-59
2022/02/08 02:53:04;;;;;;;4.07;1.90;;;2.50;5.80;;;;;;7366739;19;20062;-60
2022/02/08 02:55:37;;;;;;;9.23;1.85;;;2.60;5.60;;;;;;7368489;19;20007;-59
2022/02/08 02:58:08;;;;;;;6.30;1.52;;;2.60;5.60;;;;;;7363812;19;20334;-60
2022/02/08 03:00:42;;;;;;;6.13;1.90;;;2.70;4.90;;;;;;7389291;19;20013;-60
2022/02/08 03:03:28;;;;;;;8.90;2.53;;;2.70;4.60;;;;;;7363886;19;20017;-60
2022/02/08 03:06:04;;;;;;;7.32;2.15;;;2.70;4.70;;;;;;7369820;19;20065;-60
2022/02/08 03:19:26;;;;;;;8.10;2.17;;;2.80;3.90;;;;;;7363114;19;20082;-60
2022/02/08 03:21:56;;;;;;;7.55;1.65;;;2.90;3.90;;;;;;7390586;19;20571;-60
2022/02/08 03:24:26;;;;;;;7.45;1.95;;;2.90;3.70;;;;;;7366458;19;20015;-60
2022/02/08 03:26:59;;;;;;;6.13;1.65;;;2.90;3.50;;;;;;7363411;19;20011;-59
2022/02/08 03:29:28;;;;;;;7.25;1.60;;;3.00;2.70;;;;;;7362499;19;20085;-61
2022/02/08 03:31:58;;;;;;;5.88;1.13;;;3.00;2.80;;;;;;7370848;19;20374;-60
2022/02/08 03:34:28;;;;;;;6.80;2.03;;;3.00;2.70;;;;;;7363412;19;20078;-60
2022/02/08 03:36:58;;;;;;;5.65;1.83;;;3.00;2.30;;;;;;7364781;19;20013;-61
2022/02/08 03:39:34;;;;;;;6.22;2.15;;;3.00;2.30;;;;;;7385528;19;20015;-59
2022/02/08 03:42:16;;;;;;;4.50;1.80;;;3.00;2.90;;;;;;7365472;19;20550;-60
2022/02/08 03:44:49;;;;;;;6.20;2.05;;;3.00;2.40;;;;;;7363805;19;20626;-60
2022/02/08 03:47:20;;;;;;;5.60;1.25;;;2.90;2.80;;;;;;7367328;19;20016;-58
2022/02/08 03:49:50;;;;;;;5.03;1.42;;;2.90;2.50;;;;;;7362618;19;20020;-59
2022/02/08 03:52:23;;;;;;;9.40;1.83;;;3.00;2.60;;;;;;7367429;19;20021;-59
2022/02/08 03:54:53;;;;;;;6.38;2.05;;;3.00;2.50;;;;;;7386586;19;20018;-60
2022/02/08 03:57:26;;;;;;;5.85;1.70;;;3.00;2.40;;;;;;7364415;19;20017;-59
2022/02/08 03:59:56;;;;;;;7.82;2.22;;;3.00;2.60;;;;;;7361440;19;20498;-59
2022/02/08 04:02:40;;;;;;;8.05;1.83;;;3.00;2.40;;;;;;7367667;19;20014;-59
2022/02/08 04:05:19;;;;;;;4.88;1.67;;;3.00;3.00;;;;;;7362409;19;20088;-58
2022/02/08 04:07:52;;;;;;;5.72;1.85;;;3.00;4.00;;;;;;7361934;19;20007;-59
2022/02/08 04:10:25;;;;;;;5.72;1.75;;;3.00;3.70;;;;;;7368706;19;20090;-59
2022/02/08 04:13:08;;;;;;;4.15;1.48;;;2.90;4.50;;;;;;7387512;19;20073;-59
2022/02/08 04:16:01;;;;;;;5.05;1.65;;;3.00;4.10;;;;;;7364155;19;20013;-59
2022/02/08 04:18:52;;;;;;;6.07;1.83;;;3.00;3.90;;;;;;7360011;19;20021;-59
2022/02/08 04:32:36;;;;;;;;;;;2.90;4.40;;;;;;7369138;19;20014;-59
2022/02/08 04:35:35;;;;;;;11.38;2.03;;;2.80;4.10;;;;;;7363481;19;19909;-59
2022/02/08 04:38:16;;;;;;;7.88;1.92;;;2.80;5.10;;;;;;7357972;19;20105;-60
2022/02/08 04:40:59;;;;;;;6.97;2.00;;;2.70;5.50;;;;;;7367524;19;20068;-59
2022/02/08 04:43:48;;;;;;;6.07;1.92;;;2.60;6.10;;;;;;7363137;19;20014;-59
2022/02/08 04:46:32;;;;;;;5.63;2.35;;;2.70;5.90;;;;;;7364590;19;20015;-59
2022/02/08 04:49:02;;;;;;;8.65;2.15;;;2.70;5.80;;;;;;7359242;19;20010;-59
2022/02/08 04:51:37;;;;;;;7.50;2.85;;;2.70;5.10;;;;;;7388287;19;20336;-59
2022/02/08 04:54:15;;;;;;;6.03;1.75;;;2.70;5.70;;;;;;7360129;19;20041;-59
2022/02/08 04:59:42;;;;;;;8.82;1.98;;;2.70;5.70;;;;;;7362342;19;20439;-59
2022/02/08 05:26:31;;;;;;;9.77;1.60;;;2.60;5.80;;;;;;7366214;19;20010;-60
2022/02/08 05:27:33;;;;;;;7.10;2.25;;;3.10;4.10;;;;;;7360817;19;20006;-59
2022/02/08 05:34:12;;;;;;;5.10;1.60;;;3.10;4.80;;;;;;7360514;19;20470;-59
2022/02/08 05:35:51;;;;;;;3.60;1.85;;;3.10;4.20;;;;;;7363224;19;20017;-59
2022/02/08 05:44:04;;;;;;;6.88;1.65;;;3.30;3.10;;;;;;7361344;19;19914;-59
2022/02/08 05:46:51;;;;;;;4.10;2.08;;;3.30;2.80;;;;;;7362534;19;20006;-59
2022/02/08 05:49:40;;;;;;;8.80;1.92;;;3.40;2.40;;;;;;7359716;19;20050;-59
2022/02/08 05:54:59;;;;;;;8.02;1.92;;;3.40;2.90;;;;;;7360424;19;20547;-61
2022/02/08 05:57:29;;;;;;;8.93;1.98;;;3.40;2.50;;;;;;7379983;19;20074;-60
2022/02/08 05:59:58;;;;;;;6.88;1.85;;;3.40;3.10;;;;;;7362608;19;20446;-60
2022/02/08 06:02:28;;;;;;;7.68;2.38;;;3.40;3.50;;;;;;7364520;19;20006;-59
2022/02/08 06:04:58;;;;;;;9.75;1.75;;;3.40;3.90;;;;;;7359950;19;20010;-59
2022/02/08 06:07:31;;;;;;;7.32;1.95;;;3.50;3.70;;;;;;7361475;19;20086;-59
2022/02/08 06:10:02;;;;;;;9.80;2.15;;;3.50;3.70;;;;;;7363985;19;20014;-59
2022/02/08 06:12:34;;;;;;;7.65;2.15;;;3.50;3.70;;;;;;7382860;19;20018;-59
2022/02/08 06:15:08;;;;;;;4.65;1.70;;;3.60;3.90;;;;;;7360246;19;20469;-59
2022/02/08 06:17:38;;;;;;;5.78;1.88;;;3.60;3.90;;;;;;7357565;19;20094;-59
2022/02/08 06:20:09;;;;;;;8.55;2.10;;;3.60;4.40;;;;;;7361811;19;20338;-58
2022/02/08 06:22:44;;;;;;;8.30;1.52;;;3.60;4.30;;;;;;7363667;19;20074;-59
2022/02/08 06:25:16;;;;;;;6.13;1.55;;;3.60;3.80;;;;;;7363781;19;20029;-59
2022/02/08 06:27:50;;;;;;;8.18;2.17;;;3.60;3.10;;;;;;7384266;19;20011;-58
2022/02/08 06:30:22;;;;;;;10.05;2.05;;;3.70;2.70;;;;;;7368585;19;20086;-58
2022/02/08 06:32:54;;;;;;;11.50;2.38;;;3.70;2.80;;;;;;7370186;19;20517;-59
2022/02/08 06:35:27;;;;;;;8.00;1.83;;;3.70;2.30;;;;;;7366773;19;20003;-58
2022/02/08 06:38:01;;;;;;;10.48;2.75;;;3.70;2.40;;;;;;7362937;19;20052;-58
2022/02/08 06:40:31;;;;;;;10.93;2.92;;;3.70;2.10;;;;;;7371527;19;20017;-58
2022/02/08 06:43:03;;;;;;;10.82;2.65;;;3.70;2.40;;;;;;7363574;19;20018;-59
2022/02/08 06:45:33;;;;;;;11.38;2.45;;;3.70;2.20;;;;;;7389965;19;20018;-58
2022/02/08 06:48:07;;;;;;;9.65;2.53;;;3.70;2.50;;;;;;7364105;19;20484;-58
2022/02/08 06:50:37;;;;;;;14.50;2.30;;;3.70;2.50;;;;;;7367113;19;20411;-59
2022/02/08 06:53:09;;;;;;;12.45;2.33;;;3.70;2.00;;;;;;7363891;19;20018;-59
2022/02/08 06:55:39;;;;;;;6.40;2.25;;;3.70;2.50;;;;;;7366400;19;20017;-59
2022/02/08 06:58:11;;;;;;;4.60;1.80;;;3.70;2.50;;;;;;7361352;19;20017;-58
2022/02/08 07:00:44;;;;;;;11.18;2.65;;;3.80;2.30;;;;;;7388486;19;20022;-59
2022/02/08 07:03:16;;;;;;;5.68;1.90;;;3.80;2.50;;;;;;7363568;19;20481;-59
2022/02/08 07:05:46;;;;;;;7.10;2.08;;;3.80;2.60;;;;;;7368441;19;20006;-59
2022/02/08 07:08:18;;;;;;;12.77;2.83;;;3.80;1.80;;;;;;7361851;19;20010;-59
2022/02/08 07:10:48;;;;;;;9.30;2.92;;;3.80;1.30;;;;;;7370541;19;20007;-60
2022/02/08 07:13:18;;;;;;;8.55;2.40;;;3.90;2.20;;;;;;7364763;19;21181;-59
2022/02/08 07:15:48;;;;;;;8.48;2.47;;;3.90;1.50;;;;;;7387007;19;20473;-58
2022/02/08 07:18:18;;;;;;;6.03;1.98;;;3.90;1.60;;;;;;7362058;19;20473;-60
2022/02/08 07:20:48;;;;;;;8.85;2.70;;;3.90;2.80;;;;;;7368620;19;20098;-59
2022/02/08 07:23:20;;;;;;;6.25;1.90;;;3.90;3.50;;;;;;7363946;19;20014;-59
2022/02/08 07:25:52;;;;;;;6.47;2.00;;;3.90;3.50;;;;;;7369519;19;20011;-58
2022/02/08 07:28:22;;;;;;;6.57;1.90;;;3.90;3.90;;;;;;7362536;19;20039;-60
2022/02/08 07:30:58;;;;;;;8.32;2.30;;;3.90;4.90;;;;;;7388725;19;20463;-60
2022/02/08 07:33:31;;;;;;;6.28;2.28;;;4.00;5.50;;;;;;7365747;19;20082;-60
2022/02/08 07:36:08;;;;;;;10.77;2.47;;;4.00;3.80;;;;;;7365688;19;20453;-59
2022/02/08 07:38:41;;;;;;;10.18;2.00;;;4.10;3.90;;;;;;7360216;19;20003;-59
2022/02/08 07:43:53;;;;;;;13.48;2.10;;;4.00;2.70;;;;;;7364304;19;20075;-58
2022/02/08 07:46:23;;;;;;;8.23;2.40;;;4.10;3.20;;;;;;7363296;19;20027;-59
2022/02/08 07:48:53;;;;;;;7.53;2.33;;;4.20;3.10;;;;;;7383335;19;20034;-59
2022/02/08 07:51:24;;;;;;;8.82;2.70;;;4.20;2.30;;;;;;7365931;19;20028;-61
2022/02/08 07:53:56;;;;;;;8.68;1.90;;;4.30;2.10;;;;;;7360122;19;20099;-59
2022/02/08 07:56:26;;;;;;;7.75;1.95;;;4.30;1.10;;;;;;7366783;19;20450;-59
2022/02/08 07:58:56;;;;;;;7.57;1.95;;;4.40;1.20;;;;;;7361666;19;20006;-59
2022/02/08 08:01:27;;;;;;;8.55;2.08;;;4.40;1.00;;;;;;7366509;19;20014;-59
2022/02/08 08:03:58;;;;;;;8.43;2.33;;;4.50;1.30;;;;;;7371674;19;20060;-60
2022/02/08 08:06:28;;;;;;;7.95;2.47;;;4.50;1.00;;;;;;7383971;19;20082;-59
2022/02/08 08:09:00;;;;;;;7.80;2.05;;;4.50;1.00;;;;;;7359031;19;20010;-59
2022/02/08 08:11:36;;;;;;;9.57;1.90;;;4.60;1.00;;;;;;7367007;19;20085;-59
2022/02/08 08:14:08;;;;;;;7.60;2.00;;;4.60;1.00;;;;;;7363927;19;20027;-59
2022/02/08 08:16:51;;;;;;;13.15;4.80;;;4.70;1.00;;;;;;7364568;19;20006;-59
2022/02/08 08:19:36;;;;;;;6.53;1.90;;;4.80;1.00;;;;;;7361465;19;20014;-59
2022/02/08 08:22:08;;;;;;;7.32;2.05;;;4.80;1.00;;;;;;7367745;19;20475;-59
2022/02/08 08:24:41;;;;;;;7.07;1.73;;;4.80;1.00;;;;;;7381332;19;20018;-59
2022/02/08 08:27:12;;;;;;;7.55;1.80;;;4.80;1.00;;;;;;7364035;19;20079;-59
2022/02/08 08:29:42;;;;;;;9.35;2.28;;;4.90;1.00;;;;;;7362921;19;20501;-59
2022/02/08 08:32:12;;;;;;;9.15;2.67;;;4.80;1.00;;;;;;7366511;19;20070;-59
2022/02/08 08:34:42;;;;;;;6.88;1.80;;;4.80;1.00;;;;;;7359839;19;20027;-59
2022/02/08 08:37:12;;;;;;;10.00;2.15;;;4.80;1.00;;;;;;7364812;19;20015;-59
2022/02/08 08:39:48;;;;;;;6.40;1.98;;;4.90;1.00;;;;;;7382086;19;20011;-59
2022/02/08 08:42:34;;;;;;;9.75;1.83;;;4.90;1.00;;;;;;7366307;19;20107;-59
2022/02/08 08:51:01;;;;;;;7.03;1.80;;;5.30;1.00;;;;;;7360378;19;20364;-59
2022/02/08 08:53:33;;;;;;;9.30;1.83;;;5.50;1.00;;;;;;7360874;19;20951;-60
2022/02/08 08:56:06;;;;;;;9.15;2.22;;;5.60;1.00;;;;;;7366379;19;20085;-59
2022/02/08 08:58:36;;;;;;;5.80;2.08;;;5.50;1.00;;;;;;7357003;19;20027;-60
2022/02/08 09:01:06;;;;;;;11.48;2.10;;;5.60;1.00;;;;;;7365718;19;20428;-59
2022/02/08 09:03:36;;;;;;;6.93;1.98;;;5.60;1.00;;;;;;7383819;19;20482;-58
2022/02/08 09:06:06;;;;;;;7.03;1.90;;;5.50;1.00;;;;;;7363123;19;20485;-59
2022/02/08 09:08:41;;;;;;;6.47;2.08;;;5.60;1.00;;;;;;7359652;19;20014;-61
2022/02/08 09:11:18;;;;;;;11.93;2.80;;;5.60;1.00;;;;;;7366403;19;20010;-60
2022/02/08 09:13:55;;;;;;;8.50;2.25;;;5.70;1.00;;;;;;7360823;19;20041;-60
2022/02/08 09:16:32;;;;;;;6.55;2.30;;;5.80;1.00;;;;;;7363059;19;20011;-59
2022/02/08 09:24:53;;;;;;;6.55;1.90;;;6.60;1.00;;;;;;7357579;19;20006;-60
2022/02/08 09:30:10;;;;;;;4.63;1.90;;;6.80;1.00;;;;;;7362580;19;20395;-60
2022/02/08 09:32:47;;;;;;;5.40;1.60;;;7.00;1.00;;;;;;7364860;19;20103;-59
2022/02/08 09:35:18;;;;;;;10.10;2.05;;;7.30;1.00;;;;;;7356160;19;20426;-59
2022/02/08 09:37:48;;;;;;;9.43;2.28;;;7.60;1.00;;;;;;7362022;19;20396;-59
2022/02/08 09:40:23;;;;;;;7.38;1.80;;;7.10;1.00;;;;;;7360730;19;20025;-59
2022/02/08 09:43:04;;;;;;;6.28;1.75;;;7.20;1.00;;;;;;7361598;19;20013;-59
2022/02/08 09:45:35;;;;;;;6.07;1.67;;;7.10;1.00;;;;;;7385833;19;20039;-59
2022/02/08 09:48:10;;;;;;;7.85;1.88;;;7.00;1.00;;;;;;7361146;19;20027;-59
2022/02/08 09:50:41;;;;;;;6.97;1.95;;;6.80;1.00;;;;;;7360031;19;20115;-60
2022/02/08 09:53:14;;;;;;;10.88;2.03;;;7.20;1.00;;;;;;7360693;19;20078;-60
2022/02/08 09:55:45;;;;;;;8.77;1.90;;;7.20;1.00;;;;;;7363560;19;20007;-60
2022/02/08 09:58:20;;;;;;;6.90;1.85;;;7.20;1.00;;;;;;7359674;19;20043;-60
2022/02/08 10:00:50;;;;;;;7.85;1.88;;;7.40;1.00;;;;;;7384061;19;20009;-58
2022/02/08 10:03:20;;;;;;;5.88;2.00;;;7.50;1.00;;;;;;7357883;19;20014;-59
2022/02/08 10:05:56;;;;;;;5.35;1.70;;;7.70;1.00;;;;;;7360205;19;20097;-60
2022/02/08 10:08:26;;;;;;;5.53;1.90;;;7.50;1.00;;;;;;7361646;19;20006;-60
2022/02/08 10:10:56;;;;;;;4.90;1.58;;;7.90;1.00;;;;;;7362304;19;20023;-60
2022/02/08 10:13:41;;;;;;;12.43;2.03;;;7.70;1.00;;;;;;7357225;19;20011;-59
2022/02/08 10:21:48;;;;;;;12.30;2.08;;;7.70;1.00;;;;;;7360955;19;20547;-60
2022/02/08 10:24:22;;;;;;;6.13;1.80;;;7.60;1.00;;;;;;7355684;19;20018;-59
2022/02/08 10:27:05;;;;;;;8.25;2.15;;;7.60;1.00;;;;;;7360466;19;20347;-59
2022/02/08 10:29:56;;;;;;;7.53;2.00;;;7.60;1.00;;;;;;7359125;19;20019;-59
2022/02/08 10:38:05;;;;;;;5.85;1.58;;;8.00;1.00;;;;;;7360920;19;20010;-59
2022/02/08 10:40:38;;;;;;;9.63;1.98;;;8.10;1.00;;;;;;7359341;19;20086;-59
2022/02/08 10:43:11;;;;;;;4.75;1.60;;;8.50;1.00;;;;;;7358503;19;20015;-59
2022/02/08 10:45:46;;;;;;;10.23;2.17;;;8.70;1.00;;;;;;7384877;19;20018;-60
2022/02/08 10:48:22;;;;;;;8.10;2.00;;;8.90;1.00;;;;;;7357587;19;20499;-59
2022/02/08 10:50:56;;;;;;;9.13;2.25;;;8.90;1.00;;;;;;7357265;19;20003;-59
2022/02/08 10:53:37;;;;;;;8.80;2.38;;;9.10;1.00;;;;;;7357981;19;20031;-59
2022/02/08 10:56:11;;;;;;;8.40;1.90;;;9.20;1.00;;;;;;7360828;19;20074;-59
2022/02/08 10:58:50;;;;;;;10.27;2.20;;;9.30;1.00;;;;;;7354550;19;20050;-60
2022/02/08 11:01:28;;;;;;;8.20;2.05;;;9.40;1.00;;;;;;7362508;19;20086;-60
2022/02/08 11:04:05;;;;;;;8.13;2.10;;;9.10;1.00;;;;;;7356933;19;20035;-60
2022/02/08 11:06:49;;;;;;;6.68;2.03;;;9.20;1.00;;;;;;7379962;19;20039;-59
2022/02/08 11:09:28;;;;;;;5.65;1.58;;;9.50;1.00;;;;;;7355960;19;20021;-61
2022/02/08 11:12:09;;;;;;;5.70;1.75;;;9.30;1.00;;;;;;7367467;19;20003;-60
2022/02/08 11:15:00;;;;;;;16.20;2.10;;;9.30;1.00;;;;;;7362568;19;20085;-60
2022/02/08 11:20:32;;;;;;;4.10;1.50;;;9.50;1.00;;;;;;7364556;19;20014;-60
2022/02/08 11:23:21;;;;;;;7.35;1.88;;;9.70;1.00;;;;;;7368004;19;20062;-60
2022/02/08 11:25:53;;;;;;;9.63;1.85;;;9.80;1.00;;;;;;7367572;19;20538;-60
2022/02/08 11:28:32;;;;;;;;;;;9.80;1.00;;;;;;7365173;19;20014;-60
2022/02/08 11:31:14;;;;;;;3.90;1.25;;;9.80;1.00;;;;;;7366813;19;19915;-59
2022/02/08 11:40:02;;;;;;;6.53;1.30;;;9.70;1.00;;;;;;7361915;19;20031;-59
2022/02/08 11:48:30;;;;;;;6.85;1.20;;;9.80;1.00;;;;;;7364902;19;20066;-59
2022/02/08 11:54:36;;;;;;;6.28;1.58;;;10.00;1.00;;;;;;7360833;19;20089;-59
2022/02/08 11:58:03;;;;;;;4.93;1.73;;;10.00;1.00;;;;;;7367471;19;20013;-59
2022/02/08 12:00:39;;;;;;;3.63;1.05;;;10.10;1.00;;;;;;7362927;19;20082;-60
2022/02/08 12:03:41;;;;;;;3.28;1.20;;;10.00;1.00;;;;;;7362285;19;20011;-59
2022/02/08 12:06:28;;;;;;;3.50;0.95;;;9.90;1.00;;;;;;7365147;19;20013;-60
2022/02/08 12:09:10;;;;;;;4.07;1.00;;;9.70;1.00;;;;;;7359198;19;20017;-59
2022/02/08 12:12:05;;;;;;;4.68;1.38;;;9.70;1.00;;;;;;7365661;19;20015;-59
2022/02/08 12:29:32;;;;;;;3.38;0.82;;;9.90;1.00;;;;;;7363211;19;20031;-59
2022/02/08 12:32:02;;;;;;;4.88;1.25;;;10.00;1.00;;;;;;7366558;19;20011;-60
2022/02/08 12:35:01;;;;;;;5.15;1.33;;;9.90;1.00;;;;;;7364575;19;20019;-60
2022/02/08 12:48:58;;;;;;;4.10;1.05;;;10.00;1.00;;;;;;7360924;19;20031;-61
2022/02/08 12:54:35;;;;;;;6.55;1.58;;;10.00;1.00;;;;;;7361969;19;20010;-61
2022/02/08 12:57:19;;;;;;;8.82;1.58;;;10.10;1.00;;;;;;7363926;19;20455;-60
2022/02/08 13:03:09;;;;;;;6.28;1.23;;;10.10;1.00;;;;;;7359401;19;20980;-61
2022/02/08 13:15:03;;;;;;;4.47;1.27;;;9.50;1.00;;;;;;7360406;19;20343;-60
2022/02/08 13:20:17;;;;;;;5.43;0.88;;;9.50;1.00;;;;;;7360206;19;20011;-61
2022/02/08 14:06:50;;;;;;;6.65;1.40;;;9.30;1.00;;;;;;7361690;19;20100;-60
2022/02/08 14:09:45;;;;;;;3.80;1.55;;;9.30;1.00;;;;;;7354676;19;20473;-61
2022/02/08 14:15:21;;;;;;;5.45;1.40;;;9.30;1.00;;;;;;7361305;19;20384;-61
2022/02/08 14:18:01;;;;;;;3.53;1.13;;;9.50;1.00;;;;;;7358446;19;20436;-59
2022/02/08 14:29:15;;;;;;;4.55;1.35;;;9.50;1.00;;;;;;7358109;19;20014;-59
2022/02/08 14:29:34;;;;;;;3.25;1.13;;;9.40;1.00;;;;;;7356279;19;20011;-59
2022/02/08 15:08:08;;;;;;;5.40;1.55;;;9.20;1.40;;;;;;7365900;19;20026;-59
2022/02/08 15:10:42;;;;;;;2.97;1.08;;;9.20;2.00;;;;;;7359354;19;20027;-60
2022/02/08 15:13:17;;;;;;;7.00;1.33;;;9.10;2.00;;;;;;7364615;19;20062;-60
2022/02/08 15:18:50;;;;;;;4.78;1.60;;;9.20;3.00;;;;;;7382457;19;20015;-59
2022/02/08 15:21:25;;;;;;;6.03;1.38;;;9.20;2.70;;;;;;7361638;19;20010;-59
2022/02/08 15:23:55;;;;;;;4.03;1.30;;;9.20;3.20;;;;;;7360930;19;21092;-59
2022/02/08 15:26:25;;;;;;;4.55;1.20;;;9.10;2.60;;;;;;7365263;19;20048;-59
2022/02/08 15:29:02;;;;;;;4.65;1.27;;;9.10;3.40;;;;;;7361519;19;20138;-59
2022/02/08 15:31:34;;;;;;;4.97;1.30;;;9.10;2.60;;;;;;7368390;19;20014;-59
2022/02/08 15:34:03;;;;;;;4.13;1.00;;;9.00;3.10;;;;;;7365391;19;20156;-60
2022/02/08 15:36:33;;;;;;;3.63;1.08;;;8.90;2.90;;;;;;7386410;19;20090;-59
2022/02/08 15:39:07;;;;;;;6.00;1.35;;;8.90;3.30;;;;;;7356426;19;20110;-59
2022/02/08 15:41:39;;;;;;;5.35;1.08;;;8.90;3.20;;;;;;7366785;19;20545;-58
2022/02/08 15:44:17;;;;;;;5.20;1.20;;;8.90;3.20;;;;;;7363914;19;20006;-59
2022/02/08 15:46:48;;;;;;;4.55;1.08;;;8.80;3.40;;;;;;7367763;19;20122;-60
2022/02/08 15:49:18;;;;;;;6.65;1.70;;;8.80;3.40;;;;;;7358556;19;20008;-59
2022/02/08 15:51:54;;;;;;;4.90;1.17;;;8.80;4.00;;;;;;7385973;19;20014;-59
2022/02/08 15:54:34;;;;;;;4.97;1.40;;;8.80;4.00;;;;;;7364315;19;20011;-58
2022/02/08 15:57:41;;;;;;;1.88;1.10;;;8.80;4.00;;;;;;7368168;19;20027;-59
2022/02/08 16:00:22;;;;;;;5.05;1.38;;;8.80;4.80;;;;;;7358259;19;20449;-58
2022/02/08 16:05:49;;;;;;;7.85;1.58;;;8.70;5.10;;;;;;7365746;19;20510;-58
2022/02/08 16:08:26;;;;;;;3.13;1.10;;;8.60;5.10;;;;;;7365739;19;20010;-59
2022/02/08 16:11:07;;;;;;;3.28;1.17;;;8.70;5.10;;;;;;7359209;19;20006;-59
2022/02/08 16:13:46;;;;;;;7.47;1.17;;;8.70;5.30;;;;;;7363548;19;20018;-59
2022/02/08 16:16:41;;;;;;;5.03;1.30;;;8.60;5.30;;;;;;7367217;19;20023;-58
2022/02/08 16:19:18;;;;;;;4.37;0.97;;;8.60;5.80;;;;;;7358105;19;20613;-60
2022/02/08 16:24:46;;;;;;;2.75;1.55;;;8.50;7.60;;;;;;7361397;19;20082;-58
2022/02/08 16:27:29;;;;;;;5.00;1.70;;;8.40;8.20;;;;;;7366110;19;20031;-60
2022/02/08 16:30:46;;;;;;;3.90;1.48;;;8.30;9.50;;;;;;7358004;19;20015;-58
2022/02/08 16:50:41;;;;;;;5.25;1.48;;;8.10;12.70;;;;;;7360426;19;20017;-59
2022/02/08 16:53:08;;;;;;;6.75;1.92;;;8.10;14.30;;;;;;7363502;19;20437;-59
2022/02/08 16:58:39;;;;;;;5.55;1.83;;;8.00;14.90;;;;;;7361115;19;20018;-59
2022/02/08 17:01:17;;;;;;;3.35;1.55;;;7.90;15.30;;;;;;7359914;19;20014;-59
2022/02/08 17:03:49;;;;;;;3.25;1.70;;;7.90;15.80;;;;;;7379781;19;20381;-59
2022/02/08 17:06:25;;;;;;;6.07;2.25;;;7.90;16.30;;;;;;7363038;19;20018;-59
2022/02/08 17:09:02;;;;;;;4.70;2.08;;;8.00;16.80;;;;;;7355504;19;20031;-59
2022/02/08 17:11:41;;;;;;;6.55;2.00;;;7.90;16.00;;;;;;7362558;19;20042;-59
2022/02/08 17:16:59;;;;;;;8.93;2.60;;;7.90;16.40;;;;;;7364033;19;20006;-59
2022/02/08 17:46:57;;;;;;;5.78;2.25;;;7.90;16.20;;;;;;7364015;19;20467;-59
2022/02/08 17:49:27;;;;;;;8.90;3.10;;;7.90;15.00;;;;;;7352580;19;20093;-59
2022/02/08 17:51:57;;;;;;;7.88;2.33;;;7.80;15.40;;;;;;7369359;19;20096;-60
2022/02/08 17:54:30;;;;;;;7.97;2.83;;;7.80;15.30;;;;;;7381234;19;20019;-60
2022/02/08 17:57:00;;;;;;;11.27;3.05;;;7.80;15.50;;;;;;7359517;19;20039;-58
2022/02/08 17:59:30;;;;;;;10.32;4.13;;;7.80;15.40;;;;;;7351808;19;20430;-59
2022/02/08 18:01:59;;;;;;;11.40;4.38;;;7.90;14.50;;;;;;7360294;19;20614;-59
2022/02/08 18:04:29;;;;;;;15.98;3.70;;;7.80;14.40;;;;;;7355520;19;20888;-59
2022/02/08 18:06:59;;;;;;;7.57;3.40;;;7.90;14.50;;;;;;7355996;19;20014;-60
2022/02/08 18:09:32;;;;;;;12.40;3.60;;;7.90;14.10;;;;;;7374778;19;20022;-60
2022/02/08 18:12:02;;;;;;;9.65;3.70;;;7.90;14.30;;;;;;7356112;19;20014;-59
2022/02/08 18:14:32;;;;;;;8.70;2.92;;;7.90;14.40;;;;;;7355666;19;20018;-58
2022/02/08 18:17:10;;;;;;;10.88;3.60;;;7.90;13.80;;;;;;7364176;19;20030;-59
2022/02/08 18:19:48;;;;;;;7.32;2.75;;;7.90;13.80;;;;;;7355340;19;20002;-59
2022/02/08 18:22:32;;;;;;;10.18;3.03;;;7.90;13.90;;;;;;7368228;19;20519;-59
2022/02/08 18:58:06;;;;;;;6.00;2.90;;;7.90;11.40;;;;;;7392378;19;20006;-60
2022/02/08 19:09:17;;;;;;;7.93;2.67;;;7.80;11.50;;;;;;7359986;19;20081;-59
2022/02/08 19:11:59;;;;;;;6.78;2.65;;;7.70;12.20;;;;;;7366340;19;20090;-59
2022/02/08 19:20:03;;;;;;;6.53;2.88;;;7.50;16.60;;;;;;7362586;19;20093;-59
2022/02/08 19:22:35;;;;;;;9.32;3.50;;;7.50;17.70;;;;;;7367735;19;20014;-59
2022/02/08 19:25:05;;;;;;;7.60;3.28;;;7.40;20.10;;;;;;7367664;19;20011;-59
2022/02/08 19:27:40;;;;;;;8.15;3.35;;;7.30;21.60;;;;;;7390916;19;20096;-59
2022/02/08 19:30:14;;;;;;;9.90;3.38;;;7.20;25.30;;;;;;7362607;19;20477;-59
2022/02/08 19:32:45;;;;;;;13.30;3.63;;;7.20;27.10;;;;;;7366667;19;20587;-59
2022/02/08 19:35:17;;;;;;;11.77;4.03;;;7.10;28.50;;;;;;7367594;19;20010;-59